East Setauket, NY (11733)

9:20 PM EDT on July 04, 2015 (GMT -0400)
KNYEASTS2 | | Change Station
CLOSE
Current Station
Personal Weather Station
Location: East Setauket, NY
Elevation: 86 ft
Nearby Weather Stations

Elev 86 ft 40.92 °N, 73.11 °W | Updated 60 seconds ago

Partly Cloudy
Partly Cloudy
64.9 °F
Feels Like 64.9 °F
N
0.0
Wind Variable Wind from ENE
Gusts 4.0 mph

Today
High -- | Low -- °F
--% Chance of Precip.
Yesterday
High -- | Low -- °F
Precip. -- in
5:25 AM 8:27 PM
Waning Gibbous, 89% visible
Pressure 29.95 in
Visibility 10.0 miles
Clouds Scattered Clouds 4100 ft
Scattered Clouds 11000 ft
Mostly Cloudy 26000 ft
Dew Point 62 °F
Humidity 91%
Rainfall 0.00 in
Snow Depth Not available.
UV 0.0 out of 12
Pollen 1.20 out of 12
Air Quality Not available.
Flu Activity Not available.
METAR KISP 042356Z 02004KT 10SM SCT041 SCT110 BKN260 22/14 A2995 RMK AO2 SLP142 60000 T02170144 10239 20211 53012

More Conditions Fewer Conditions

Pressure 29.95 in
Visibility 10.0 miles
Clouds Scattered Clouds 4100 ft
Scattered Clouds 11000 ft
Mostly Cloudy 26000 ft
Dew Point 62 °F
Humidity 91%
Rainfall 0.00 in
Snow Depth Not available.
UV 0.0 out of 12
Pollen 1.20 out of 12
Air Quality Not available.
Flu Activity Not available.
METAR KISP 042356Z 02004KT 10SM SCT041 SCT110 BKN260 22/14 A2995 RMK AO2 SLP142 60000 T02170144 10239 20211 53012

More Conditions Fewer Conditions

10-Day Weather Forecast

×

Almanac

Astronomy

Jul. 04, 2015 Rise Set
Actual Time
Civil Twilight
Nautical Twilight
Astronomical Twilight
Moon
Length of Visible Light
Length of Day
Tomorrow will be .
, % of the Moon is Illuminated

Today's Extremes

State Highs State Lows

Community

WunderPhotos

Upload Photos

1,835,132 photos uploaded!

WunderBlogs® & News

Nearby

Air Quality

  Air Quality AQ Index Pollutant
Not available.

Snow Depth

Station Depth Elevation

Earthquake Activity

City Distance Mag. Time & Date
Minimum magnitude displayed is 2.5.

Coastal Water Temperatures

Place Temperature

Stations

Nearby Weather Stations

Station Location Temp. Windchill Dew Point Humidity Wind Precip. Elev Updated Type